createdAt,value
2023-04-15T00:00:29.639Z,0.80
2023-04-15T00:01:31.739Z,0.80
2023-04-15T00:02:29.775Z,1.20
2023-04-15T00:07:19.949Z,0.20
2023-04-15T00:29:10.168Z,0.30
2023-04-15T00:29:49.951Z,0.40
2023-04-15T00:30:49.986Z,0.20
2023-04-15T00:31:49.941Z,0.30
2023-04-15T00:32:50.003Z,1.20
2023-04-15T00:33:49.910Z,0.70
2023-04-15T00:34:49.984Z,0.10
2023-04-15T00:35:49.883Z,0.40
2023-04-15T00:36:50.539Z,0.80
2023-04-15T00:37:49.865Z,1.40
2023-04-15T00:38:49.901Z,0.90
2023-04-15T00:39:49.843Z,0.70
2023-04-15T00:40:49.960Z,0.20
2023-04-15T00:41:49.825Z,0.30
2023-04-15T00:42:49.937Z,0.40
2023-04-15T00:43:49.797Z,0.30
2023-04-15T00:44:49.851Z,0.30
2023-04-15T00:45:49.822Z,0.50
2023-04-15T00:46:49.884Z,0.30
2023-04-15T00:47:49.856Z,0.70
2023-04-15T00:48:49.886Z,0.40
2023-04-15T00:49:49.744Z,0.80
2023-04-15T00:50:49.895Z,0.40
2023-04-15T00:51:49.729Z,0.50
2023-04-15T00:52:50.887Z,0.40
2023-04-15T00:53:49.702Z,0.10
2023-04-15T00:54:49.817Z,0.40
2023-04-15T00:55:49.704Z,0.50
2023-04-15T00:57:11.782Z,0.60
2023-04-15T00:57:49.688Z,1.00
2023-04-15T00:59:12.780Z,0.20
2023-04-15T00:59:49.653Z,0.30
2023-04-15T01:00:49.692Z,0.40
2023-04-15T01:01:49.731Z,0.90
2023-04-15T01:02:49.840Z,0.40
2023-04-15T01:03:49.778Z,0.50
2023-04-15T01:04:49.729Z,0.40
2023-04-15T01:05:49.606Z,0.90
2023-04-15T01:06:49.701Z,0.50
2023-04-15T01:07:49.557Z,0.70
2023-04-15T01:08:49.622Z,1.00
2023-04-15T01:09:49.548Z,0.70
2023-04-15T01:10:49.661Z,0.60
2023-04-15T01:11:49.547Z,0.20
2023-04-15T01:12:49.690Z,0.30
2023-04-15T01:13:49.500Z,0.10
2023-04-15T01:14:49.562Z,0.40
2023-04-15T01:15:49.518Z,1.00
2023-04-15T01:16:49.580Z,0.20
2023-04-15T01:17:49.554Z,0.30
2023-04-15T01:18:49.605Z,0.10
2023-04-15T01:19:49.434Z,0.20
2023-04-15T01:20:49.512Z,0.80
2023-04-15T01:21:49.437Z,0.60
2023-04-15T01:22:49.511Z,0.30
2023-04-15T01:23:49.396Z,0.60
2023-04-15T01:24:49.582Z,0.20
2023-04-15T01:25:49.382Z,0.10
2023-04-15T01:26:49.481Z,0.30
2023-04-15T01:27:49.363Z,0.30
2023-04-15T01:28:49.468Z,0.30
2023-04-15T01:29:49.342Z,0.20
2023-04-15T01:30:49.472Z,0.40
2023-04-15T01:31:49.409Z,0.40
2023-04-15T01:32:49.459Z,0.90
2023-04-15T01:33:49.288Z,0.20
2023-04-15T01:34:49.397Z,0.60
2023-04-15T01:35:49.273Z,0.20
2023-04-15T01:36:49.446Z,0.60
2023-04-15T01:37:49.253Z,0.80
2023-04-15T01:38:49.318Z,0.30
2023-04-15T01:39:49.236Z,0.10
2023-04-15T01:40:49.373Z,0.40
2023-04-15T01:41:49.234Z,0.20
2023-04-15T01:42:49.345Z,0.40
2023-04-15T01:43:49.189Z,0.30
2023-04-15T01:44:49.364Z,0.30
2023-04-15T01:45:49.176Z,0.10
2023-04-15T01:46:49.398Z,0.50
2023-04-15T01:47:49.173Z,0.30
2023-04-15T01:49:12.241Z,0.30
2023-04-15T01:49:49.137Z,0.40
2023-04-15T01:50:49.309Z,0.70
2023-04-15T01:51:49.118Z,0.20
2023-04-15T01:52:49.283Z,0.20
2023-04-15T01:53:49.086Z,0.30
2023-04-15T01:54:51.188Z,0.10
2023-04-15T01:55:49.072Z,0.20
2023-04-15T01:56:50.170Z,1.30
2023-04-15T01:57:49.077Z,0.30
2023-04-15T01:58:49.162Z,0.40
2023-04-15T01:59:49.028Z,0.10
2023-04-15T02:00:49.209Z,0.20
2023-04-15T02:01:49.035Z,0.40
2023-04-15T02:02:49.643Z,0.30
2023-04-15T02:03:49.175Z,0.30
2023-04-15T02:04:49.125Z,0.40
2023-04-15T02:05:48.980Z,0.20
2023-04-15T02:06:49.142Z,0.60
2023-04-15T02:07:48.954Z,0.40
2023-04-15T02:08:49.153Z,1.20
2023-04-15T02:09:48.936Z,0.30
2023-04-15T02:10:49.058Z,0.40
2023-04-15T02:11:48.912Z,0.50
2023-04-15T02:12:49.068Z,0.50
2023-04-15T02:13:48.909Z,0.20
2023-04-15T02:14:49.080Z,0.50
2023-04-15T02:15:48.890Z,0.40
2023-04-15T02:16:49.091Z,0.20
2023-04-15T02:17:48.868Z,0.30
2023-04-15T02:18:49.138Z,0.40
2023-04-15T02:19:48.826Z,0.60
2023-04-15T02:20:49.006Z,0.20
2023-04-15T02:21:48.809Z,0.10
2023-04-15T02:22:48.932Z,0.20
2023-04-15T02:23:48.802Z,0.50
2023-04-15T02:24:48.952Z,0.30
2023-04-15T02:25:53.289Z,0.50
2023-04-15T02:26:48.785Z,0.20
2023-04-15T02:27:48.985Z,0.70
2023-04-15T02:28:48.747Z,0.60
2023-04-15T02:29:48.898Z,0.60
2023-04-15T02:30:48.734Z,0.50
2023-04-15T02:31:48.949Z,0.90
2023-04-15T02:32:48.762Z,0.40
2023-04-15T02:33:48.862Z,0.20
2023-04-15T02:34:48.687Z,0.30
2023-04-15T02:35:50.872Z,0.20
2023-04-15T02:36:48.660Z,0.80
2023-04-15T02:37:48.838Z,0.50
2023-04-15T02:38:48.657Z,0.20
2023-04-15T02:39:48.835Z,0.40
2023-04-15T02:40:48.626Z,0.30
2023-04-15T02:41:48.761Z,0.20
2023-04-15T02:42:48.610Z,1.20
2023-04-15T02:43:48.794Z,0.60
2023-04-15T02:44:48.594Z,0.80
2023-04-15T02:45:49.730Z,0.50
2023-04-15T02:46:48.574Z,0.40
2023-04-15T02:47:48.752Z,0.20
2023-04-15T02:48:48.557Z,0.20
2023-04-15T02:49:48.709Z,0.90
2023-04-15T02:50:48.532Z,0.20
2023-04-15T02:51:48.613Z,0.10
2023-04-15T02:52:48.504Z,0.20
2023-04-15T02:53:48.617Z,0.40
2023-04-15T02:54:48.485Z,0.10
2023-04-15T02:55:48.544Z,0.50
2023-04-15T02:56:48.463Z,0.10
2023-04-15T02:57:48.551Z,0.20
2023-04-15T02:58:48.454Z,0.50
2023-04-15T02:59:48.483Z,0.10
2023-04-15T03:00:48.417Z,0.40
2023-04-15T03:01:48.663Z,0.20
2023-04-15T03:02:48.474Z,0.10
2023-04-15T03:03:48.585Z,0.20
2023-04-15T03:04:48.392Z,0.60
2023-04-15T03:05:48.413Z,0.40
2023-04-15T03:06:48.346Z,0.30
2023-04-15T03:07:48.446Z,0.50
2023-04-15T03:08:48.330Z,0.70
2023-04-15T03:09:48.494Z,0.20
2023-04-15T03:10:48.343Z,0.30
2023-04-15T03:11:48.371Z,0.80
2023-04-15T03:12:48.302Z,0.50
2023-04-15T03:13:48.353Z,0.40
2023-04-15T03:14:48.257Z,0.10
2023-04-15T03:15:48.483Z,0.40
2023-04-15T03:16:48.250Z,0.10
2023-04-15T03:18:09.380Z,0.10
2023-04-15T03:18:48.237Z,0.60
2023-04-15T03:19:50.353Z,0.60
2023-04-15T03:20:48.222Z,0.20
2023-04-15T03:21:49.367Z,0.80
2023-04-15T03:22:48.181Z,0.40
2023-04-15T03:23:48.281Z,0.50
2023-04-15T03:24:48.181Z,0.20
2023-04-15T03:25:48.297Z,0.50
2023-04-15T03:26:48.156Z,0.20
2023-04-15T03:27:48.328Z,0.20
2023-04-15T03:28:48.136Z,0.30
2023-04-15T03:29:48.166Z,0.60
2023-04-15T03:30:48.286Z,0.40
2023-04-15T03:31:48.183Z,0.40
2023-04-15T03:32:48.132Z,0.20
2023-04-15T03:33:48.244Z,0.70
2023-04-15T03:34:48.065Z,0.40
2023-04-15T03:35:48.168Z,0.40
2023-04-15T03:36:48.053Z,0.10
2023-04-15T03:37:48.129Z,0.60
2023-04-15T03:38:48.041Z,0.40
2023-04-15T03:39:48.174Z,0.50
2023-04-15T03:40:48.014Z,0.90
2023-04-15T03:41:48.155Z,0.20
2023-04-15T03:42:47.997Z,0.50
2023-04-15T03:43:48.071Z,0.10
2023-04-15T03:44:47.992Z,0.60
2023-04-15T03:45:48.080Z,0.20
2023-04-15T03:46:48.159Z,0.40
2023-04-15T03:47:48.141Z,0.50
2023-04-15T03:48:47.920Z,0.70
2023-04-15T03:49:48.000Z,0.20
2023-04-15T03:50:47.899Z,0.70
2023-04-15T03:51:48.088Z,0.40
2023-04-15T03:52:49.177Z,0.40
2023-04-15T03:53:48.039Z,0.50
2023-04-15T03:54:47.881Z,0.50
2023-04-15T03:55:47.984Z,0.80
2023-04-15T03:56:47.865Z,0.60
2023-04-15T03:57:47.956Z,0.60
2023-04-15T03:58:47.829Z,0.20
2023-04-15T03:59:47.966Z,1.00
2023-04-15T04:00:47.815Z,0.20
2023-04-15T04:01:48.022Z,0.40
2023-04-15T04:02:47.930Z,0.20
2023-04-15T04:03:48.098Z,0.40
2023-04-15T04:04:47.839Z,0.20
2023-04-15T04:05:47.984Z,0.50
2023-04-15T04:06:47.761Z,0.60
2023-04-15T04:07:48.938Z,0.40
2023-04-15T04:08:47.725Z,0.40
2023-04-15T04:09:47.903Z,0.30
2023-04-15T04:10:47.723Z,0.60
2023-04-15T04:11:47.971Z,0.30
2023-04-15T04:12:47.693Z,0.80
2023-04-15T04:15:03.780Z,1.40
2023-04-15T04:16:04.769Z,1.50
2023-04-15T04:17:04.831Z,1.10
2023-04-15T04:18:04.599Z,0.10
2023-04-15T04:19:04.708Z,0.20
2023-04-15T04:20:04.592Z,0.40
2023-04-15T04:21:04.721Z,0.50
2023-04-15T04:22:04.577Z,0.80
2023-04-15T04:23:04.723Z,0.60
2023-04-15T04:24:04.534Z,0.30
2023-04-15T04:25:04.635Z,0.50
2023-04-15T04:26:04.515Z,0.50
2023-04-15T04:27:04.694Z,0.30
2023-04-15T04:28:04.506Z,0.40
2023-04-15T04:29:04.662Z,0.50
2023-04-15T04:30:04.489Z,0.10
2023-04-15T04:31:04.590Z,0.10
2023-04-15T04:32:04.522Z,0.30
2023-04-15T04:33:04.626Z,0.30
2023-04-15T04:34:04.439Z,0.40
2023-04-15T04:35:04.601Z,0.30
2023-04-15T04:36:04.432Z,0.20
2023-04-15T04:37:04.544Z,0.20
2023-04-15T04:38:04.398Z,0.30
2023-04-15T04:39:04.545Z,0.40
2023-04-15T04:40:04.391Z,0.70
2023-04-15T04:41:04.570Z,0.10
2023-04-15T04:42:04.363Z,0.30
2023-04-15T04:43:04.482Z,0.10
2023-04-15T04:44:04.348Z,0.70
2023-04-15T04:45:04.499Z,0.70
2023-04-15T04:46:04.377Z,0.50
2023-04-15T04:47:04.495Z,0.50
2023-04-15T04:48:04.372Z,0.80
2023-04-15T04:49:04.559Z,0.40
2023-04-15T04:50:04.288Z,0.50
2023-04-15T04:51:04.421Z,0.60
2023-04-15T04:52:04.267Z,0.70
2023-04-15T04:53:04.448Z,0.30
2023-04-15T04:54:04.242Z,0.30
2023-04-15T04:55:04.467Z,1.00
2023-04-15T04:56:04.242Z,0.60
2023-04-15T04:57:05.398Z,0.30
2023-04-15T04:58:04.217Z,0.20
2023-04-15T04:59:05.388Z,0.50
2023-04-15T05:00:04.203Z,1.60
2023-04-15T05:01:04.394Z,0.80
2023-04-15T05:02:04.276Z,0.60
2023-04-15T05:03:06.576Z,0.40
2023-04-15T05:04:04.212Z,0.50
2023-04-15T05:05:06.252Z,0.20
2023-04-15T05:06:04.117Z,0.20
2023-04-15T05:07:05.246Z,0.50
2023-04-15T05:08:04.124Z,0.80
2023-04-15T05:09:04.232Z,0.30
2023-04-15T05:10:04.126Z,0.30
2023-04-15T05:11:04.258Z,0.20
2023-04-15T05:12:04.091Z,0.30
2023-04-15T05:13:04.161Z,0.40
2023-04-15T05:14:04.063Z,0.30
2023-04-15T05:15:04.070Z,0.50
2023-04-15T05:16:04.054Z,0.20
2023-04-15T05:17:04.148Z,0.70
2023-04-15T05:18:04.074Z,0.40
2023-04-15T05:19:04.154Z,0.60
2023-04-15T05:20:03.994Z,1.60
2023-04-15T05:21:04.032Z,0.40
2023-04-15T05:22:03.985Z,0.40
2023-04-15T05:23:07.356Z,0.70
2023-04-15T05:24:03.955Z,0.20
2023-04-15T05:25:04.083Z,0.20
2023-04-15T05:26:03.942Z,0.30
2023-04-15T05:27:03.997Z,0.10
2023-04-15T05:28:03.897Z,0.10
2023-04-15T05:29:04.238Z,0.20
2023-04-15T05:30:03.890Z,0.50
2023-04-15T05:31:04.060Z,0.30
2023-04-15T05:32:03.885Z,0.30
2023-04-15T05:33:03.997Z,0.60
2023-04-15T05:34:03.847Z,0.10
2023-04-15T05:35:03.938Z,0.10
2023-04-15T05:36:03.829Z,0.30
2023-04-15T05:37:04.000Z,0.10
2023-04-15T05:38:03.821Z,0.30
2023-04-15T05:39:04.899Z,0.30
2023-04-15T05:40:03.806Z,1.10
2023-04-15T05:41:03.880Z,0.80
2023-04-15T05:42:03.792Z,0.40
2023-04-15T05:43:04.893Z,0.10
2023-04-15T05:44:03.749Z,0.30
2023-04-15T05:45:04.971Z,0.30
2023-04-15T05:46:03.895Z,0.10
2023-04-15T05:47:07.075Z,0.80
2023-04-15T05:48:03.711Z,0.10
2023-04-15T05:49:04.009Z,0.40
2023-04-15T05:50:03.688Z,0.50
2023-04-15T05:51:04.790Z,1.00
2023-04-15T05:52:03.679Z,0.40
2023-04-15T05:53:03.782Z,0.40
2023-04-15T05:54:03.649Z,0.40
2023-04-15T05:55:03.780Z,0.50
2023-04-15T05:56:03.625Z,0.30
2023-04-15T05:57:03.789Z,0.10
2023-04-15T05:58:03.607Z,0.50
2023-04-15T05:59:03.705Z,0.50
2023-04-15T06:00:03.595Z,0.60
2023-04-15T06:01:03.694Z,0.40
2023-04-15T06:02:03.604Z,0.10
2023-04-15T06:03:03.704Z,0.70
2023-04-15T06:04:03.715Z,0.30
2023-04-15T06:05:03.760Z,0.30
2023-04-15T06:06:03.555Z,0.40
2023-04-15T06:07:03.652Z,0.30
2023-04-15T06:08:03.528Z,0.30
2023-04-15T06:09:04.262Z,0.30
2023-04-15T06:10:03.495Z,0.10
2023-04-15T06:11:03.555Z,0.20
2023-04-15T06:12:03.486Z,0.30
2023-04-15T06:13:03.573Z,0.20
2023-04-15T06:14:03.483Z,0.70
2023-04-15T06:15:03.583Z,0.30
2023-04-15T06:16:03.446Z,0.50
2023-04-15T06:17:03.503Z,0.60
2023-04-15T06:18:03.429Z,1.10
2023-04-15T06:19:03.575Z,0.60
2023-04-15T06:20:03.395Z,0.60
2023-04-15T06:21:03.525Z,0.50
2023-04-15T06:22:03.377Z,0.50
2023-04-15T06:23:03.508Z,0.30
2023-04-15T06:24:03.343Z,0.30
2023-04-15T06:25:03.457Z,1.20
2023-04-15T06:26:03.340Z,0.60
2023-04-15T06:27:03.474Z,0.40
2023-04-15T06:28:03.328Z,0.30
2023-04-15T06:29:03.553Z,0.30
2023-04-15T06:30:03.283Z,0.50
2023-04-15T06:31:04.429Z,0.60
2023-04-15T06:32:03.256Z,0.30
2023-04-15T06:33:03.519Z,0.30
2023-04-15T06:34:03.244Z,0.30
2023-04-15T06:35:05.377Z,0.40
2023-04-15T06:36:03.223Z,0.30
2023-04-15T06:37:06.319Z,0.40
2023-04-15T06:38:03.241Z,0.40
2023-04-15T06:39:05.290Z,0.30
2023-04-15T06:40:03.196Z,0.40
2023-04-15T06:41:03.263Z,0.60
2023-04-15T06:42:03.164Z,0.40
2023-04-15T06:43:03.371Z,0.20
2023-04-15T06:44:03.149Z,0.80
2023-04-15T06:45:03.377Z,0.20
2023-04-15T06:46:03.183Z,0.80
2023-04-15T06:47:03.302Z,0.60
2023-04-15T06:48:03.129Z,0.20
2023-04-15T06:49:03.433Z,0.50
2023-04-15T06:50:03.090Z,0.60
2023-04-15T06:51:03.226Z,0.40
2023-04-15T06:52:03.060Z,0.40
2023-04-15T06:53:03.580Z,1.30
2023-04-15T06:54:03.101Z,0.40
2023-04-15T06:55:03.272Z,1.10
2023-04-15T06:56:03.025Z,0.70
2023-04-15T06:57:03.206Z,0.70
2023-04-15T06:58:02.992Z,0.80
2023-04-15T06:59:03.328Z,1.00
2023-04-15T07:00:02.979Z,0.90
2023-04-15T07:01:03.192Z,1.00
2023-04-15T07:02:03.036Z,0.40
2023-04-15T07:03:03.187Z,0.90
2023-04-15T07:04:03.026Z,0.70
2023-04-15T07:05:03.115Z,0.50
2023-04-15T07:06:03.053Z,0.90
2023-04-15T07:07:03.030Z,1.30
2023-04-15T07:08:02.928Z,0.90
2023-04-15T07:09:03.343Z,0.70
2023-04-15T07:10:02.894Z,0.30
2023-04-15T07:11:03.082Z,0.20
2023-04-15T07:12:02.902Z,0.50
2023-04-15T07:13:03.021Z,0.40
2023-04-15T07:14:02.841Z,0.70
2023-04-15T07:15:03.251Z,0.70
2023-04-15T07:16:02.886Z,0.70
2023-04-15T07:17:03.034Z,1.40
2023-04-15T07:18:02.978Z,0.60
2023-04-15T07:19:03.337Z,0.70
2023-04-15T07:20:02.777Z,0.30
2023-04-15T07:21:02.929Z,0.60
2023-04-15T07:22:02.752Z,0.50
2023-04-15T07:23:03.001Z,2.20
2023-04-15T07:24:02.820Z,0.60
2023-04-15T07:25:04.927Z,0.50
2023-04-15T07:26:02.715Z,0.80
2023-04-15T07:27:04.933Z,0.20
2023-04-15T07:28:02.715Z,0.60
2023-04-15T07:30:19.657Z,1.00
2023-04-15T07:31:20.465Z,1.20
2023-04-15T07:32:20.706Z,1.80
2023-04-15T07:33:20.431Z,1.50
2023-04-15T07:34:20.568Z,2.30
2023-04-15T07:35:20.400Z,1.20
2023-04-15T07:36:20.463Z,1.70
2023-04-15T07:37:20.414Z,0.70
2023-04-15T07:38:24.208Z,0.70
2023-04-15T07:39:20.464Z,0.20
2023-04-15T07:40:20.521Z,0.40
2023-04-15T07:41:20.350Z,1.70
2023-04-15T07:42:20.422Z,0.80
2023-04-15T07:43:20.324Z,0.20
2023-04-15T07:44:20.420Z,0.80
2023-04-15T07:45:20.334Z,0.90
2023-04-15T07:46:20.486Z,0.60
2023-04-15T07:47:20.320Z,0.40
2023-04-15T07:48:22.743Z,0.60
2023-04-15T07:49:20.264Z,0.20
2023-04-15T07:50:22.392Z,0.30
2023-04-15T07:51:20.247Z,1.10
2023-04-15T07:52:22.325Z,0.30
2023-04-15T07:53:20.534Z,0.50
2023-04-15T07:54:20.348Z,0.30
2023-04-15T07:55:20.209Z,0.20
2023-04-15T07:56:20.293Z,0.90
2023-04-15T07:57:20.176Z,0.70
2023-04-15T07:58:21.306Z,0.20
2023-04-15T07:59:20.180Z,0.80
2023-04-15T08:00:20.380Z,0.40
2023-04-15T08:01:20.150Z,0.70
2023-04-15T08:02:20.429Z,0.70
2023-04-15T08:03:20.249Z,0.20
2023-04-15T08:04:20.367Z,0.80
2023-04-15T08:05:20.139Z,0.40
2023-04-15T08:06:20.172Z,0.20
2023-04-15T08:07:20.071Z,0.10
2023-04-15T08:08:20.320Z,0.70
2023-04-15T08:09:20.109Z,0.40
2023-04-15T08:10:20.225Z,0.50
2023-04-15T08:11:20.110Z,1.50
2023-04-15T08:12:20.093Z,0.60
2023-04-15T08:13:20.034Z,0.70
2023-04-15T08:14:20.119Z,1.00
2023-04-15T08:15:20.024Z,0.90
2023-04-15T08:16:20.271Z,1.30
2023-04-15T08:17:19.994Z,1.30
2023-04-15T08:18:20.037Z,1.50
2023-04-15T08:19:19.966Z,1.70
2023-04-15T08:20:20.110Z,1.10
2023-04-15T08:21:19.947Z,1.10
2023-04-15T08:22:21.222Z,1.30
2023-04-15T08:23:19.953Z,1.10
2023-04-15T08:24:19.975Z,1.10
2023-04-15T08:25:19.883Z,1.10
2023-04-15T08:26:20.036Z,1.10
2023-04-15T08:27:19.880Z,1.20
2023-04-15T08:28:20.061Z,1.00
2023-04-15T08:29:19.841Z,1.20
2023-04-15T08:30:19.975Z,1.30
2023-04-15T08:31:19.865Z,0.90
2023-04-15T08:32:19.983Z,1.50
2023-04-15T08:33:19.848Z,1.50
2023-04-15T08:34:19.950Z,0.90
2023-04-15T08:35:19.795Z,0.80
2023-04-15T08:36:41.866Z,0.80
2023-04-15T08:37:19.775Z,1.30
2023-04-15T08:38:21.927Z,0.90
2023-04-15T08:39:19.764Z,0.70
2023-04-15T08:40:20.911Z,1.20
2023-04-15T08:41:19.734Z,1.00
2023-04-15T08:42:19.832Z,0.70
2023-04-15T08:43:19.707Z,0.80
2023-04-15T08:44:21.798Z,1.10
2023-04-15T08:45:19.688Z,0.60
2023-04-15T08:46:19.851Z,1.00
2023-04-15T08:47:19.685Z,0.50
2023-04-15T08:48:19.731Z,0.80
2023-04-15T08:49:19.670Z,1.10
2023-04-15T08:50:19.747Z,0.70
2023-04-15T08:51:19.619Z,1.00
2023-04-15T08:52:19.768Z,0.50
2023-04-15T08:53:19.607Z,1.00
2023-04-15T08:54:19.709Z,0.70
2023-04-15T08:55:19.605Z,0.90
2023-04-15T08:56:19.717Z,1.10
2023-04-15T08:57:19.572Z,0.80
2023-04-15T08:58:19.757Z,1.20
2023-04-15T08:59:19.553Z,0.80
2023-04-15T09:00:19.680Z,0.80
2023-04-15T09:01:19.580Z,1.30
2023-04-15T09:02:19.761Z,1.10
2023-04-15T09:03:19.575Z,1.00
2023-04-15T09:04:19.884Z,0.90
2023-04-15T09:05:19.491Z,0.60
2023-04-15T09:06:19.705Z,1.10
2023-04-15T09:07:19.459Z,1.00
2023-04-15T09:08:19.672Z,1.00
2023-04-15T09:09:19.450Z,1.10
2023-04-15T09:10:19.598Z,0.90
2023-04-15T09:11:20.218Z,1.10
2023-04-15T09:12:19.601Z,0.90
2023-04-15T09:13:19.431Z,0.80
2023-04-15T09:14:19.611Z,0.70
2023-04-15T09:15:19.389Z,0.70
2023-04-15T09:16:19.605Z,1.40
2023-04-15T09:17:19.465Z,1.00
2023-04-15T09:18:19.534Z,0.60
2023-04-15T09:19:19.332Z,0.60
2023-04-15T09:20:19.510Z,1.10
2023-04-15T09:21:19.319Z,0.80
2023-04-15T09:22:19.474Z,0.80
2023-04-15T09:23:19.312Z,1.10
2023-04-15T09:24:19.507Z,0.40
2023-04-15T09:25:19.291Z,0.90
2023-04-15T09:26:21.434Z,0.70
2023-04-15T09:27:19.263Z,1.00
2023-04-15T09:28:20.421Z,0.90
2023-04-15T09:29:19.225Z,0.60
2023-04-15T09:30:19.352Z,0.60
2023-04-15T09:31:19.240Z,1.10
2023-04-15T09:32:19.331Z,0.40
2023-04-15T09:33:19.261Z,0.60
2023-04-15T09:34:19.451Z,0.70
2023-04-15T09:35:19.262Z,1.20
2023-04-15T09:36:19.506Z,0.60
2023-04-15T09:37:31.507Z,0.90
2023-04-15T09:38:19.161Z,0.70
2023-04-15T09:39:19.329Z,1.00
2023-04-15T09:40:19.139Z,0.90
2023-04-15T09:41:19.384Z,1.40
2023-04-15T09:42:19.108Z,0.90
2023-04-15T09:43:19.239Z,1.20
2023-04-15T09:44:19.062Z,0.70
2023-04-15T09:45:19.217Z,1.10
2023-04-15T09:46:19.106Z,1.20
2023-04-15T09:47:19.334Z,0.80
2023-04-15T09:48:19.032Z,1.20
2023-04-15T09:49:19.202Z,0.80
2023-04-15T09:50:19.010Z,0.80
2023-04-15T09:51:19.482Z,1.10
2023-04-15T09:52:18.998Z,0.90
2023-04-15T09:53:19.201Z,1.40
2023-04-15T09:54:18.977Z,0.80
2023-04-15T09:55:19.254Z,0.70
2023-04-15T09:56:18.977Z,0.80
2023-04-15T09:57:19.260Z,1.00
2023-04-15T09:58:19.003Z,0.80
2023-04-15T09:59:21.829Z,0.80
2023-04-15T10:00:18.915Z,0.70
2023-04-15T10:01:19.120Z,1.10
2023-04-15T10:02:18.962Z,1.10
2023-04-15T10:03:19.327Z,1.30
2023-04-15T10:04:19.029Z,1.30
2023-04-15T10:05:18.962Z,1.30
2023-04-15T10:06:19.178Z,0.90
2023-04-15T10:07:18.993Z,0.80
2023-04-15T10:08:18.846Z,0.80
2023-04-15T10:09:18.932Z,1.30
2023-04-15T10:10:18.812Z,1.00
2023-04-15T10:11:18.908Z,1.00
2023-04-15T10:12:18.793Z,1.10
2023-04-15T10:13:18.897Z,1.50
2023-04-15T10:14:18.757Z,1.00
2023-04-15T10:15:18.803Z,0.90
2023-04-15T10:16:18.817Z,0.90
2023-04-15T10:17:18.825Z,1.10
2023-04-15T10:18:18.733Z,0.90
2023-04-15T10:19:18.844Z,0.60
2023-04-15T10:20:18.721Z,1.40
2023-04-15T10:21:18.908Z,1.00
2023-04-15T10:22:18.685Z,1.10
2023-04-15T10:23:18.750Z,1.50
2023-04-15T10:24:18.650Z,0.60
2023-04-15T10:25:18.807Z,1.50
2023-04-15T10:26:18.639Z,1.50
2023-04-15T10:27:18.748Z,1.00
2023-04-15T10:28:18.633Z,0.90
2023-04-15T10:29:18.699Z,1.00
2023-04-15T10:30:18.602Z,0.80
2023-04-15T10:31:18.764Z,0.90
2023-04-15T10:32:18.672Z,0.70
2023-04-15T10:33:18.610Z,1.00
2023-04-15T10:34:18.569Z,0.90
2023-04-15T10:35:18.629Z,1.10
2023-04-15T10:36:18.545Z,1.30
2023-04-15T10:37:18.578Z,1.30
2023-04-15T10:38:18.531Z,1.40
2023-04-15T10:39:18.602Z,1.00
2023-04-15T10:40:18.495Z,1.50
2023-04-15T10:41:20.490Z,0.80
2023-04-15T10:42:18.514Z,0.90
2023-04-15T10:43:18.574Z,0.90
2023-04-15T10:44:18.457Z,1.20
2023-04-15T10:45:18.479Z,1.00
2023-04-15T10:46:18.482Z,0.80
2023-04-15T10:47:18.516Z,0.90
2023-04-15T10:48:18.426Z,1.20
2023-04-15T10:49:18.435Z,1.00
2023-04-15T10:50:18.402Z,1.30
2023-04-15T10:51:18.423Z,0.90
2023-04-15T10:52:18.388Z,1.40
2023-04-15T10:53:19.417Z,1.10
2023-04-15T10:54:18.379Z,1.30
2023-04-15T10:55:18.462Z,0.80
2023-04-15T10:56:18.323Z,1.30
2023-04-15T10:57:18.406Z,1.20
2023-04-15T10:58:18.312Z,1.30
2023-04-15T10:59:18.909Z,1.10
2023-04-15T11:00:18.291Z,0.90
2023-04-15T11:01:18.394Z,0.90
2023-04-15T11:02:18.373Z,1.20
2023-04-15T11:03:18.423Z,1.30
2023-04-15T11:04:18.320Z,1.00
2023-04-15T11:05:18.347Z,1.00
2023-04-15T11:06:18.243Z,1.20
2023-04-15T11:07:18.366Z,1.30
2023-04-15T11:08:18.224Z,1.10
2023-04-15T11:09:18.295Z,1.20
2023-04-15T11:10:18.201Z,1.60
2023-04-15T11:11:18.242Z,1.60
2023-04-15T11:12:18.180Z,1.90
2023-04-15T11:13:18.265Z,1.20
2023-04-15T11:14:18.145Z,1.10
2023-04-15T11:15:18.193Z,0.90
2023-04-15T11:16:18.187Z,1.30
2023-04-15T11:17:18.229Z,1.20
2023-04-15T11:18:18.112Z,1.40
2023-04-15T11:19:18.190Z,1.00
2023-04-15T11:20:18.075Z,1.20
2023-04-15T11:21:18.092Z,1.10
2023-04-15T11:22:18.051Z,1.10
2023-04-15T11:23:18.153Z,1.40
2023-04-15T11:24:18.039Z,1.30
2023-04-15T11:25:18.168Z,2.00
2023-04-15T11:26:18.010Z,1.20
2023-04-15T11:27:18.042Z,1.50
2023-04-15T11:28:18.009Z,1.40
2023-04-15T11:29:18.104Z,1.20
2023-04-15T11:30:17.980Z,1.20
2023-04-15T11:31:18.426Z,1.50
2023-04-15T11:32:18.225Z,1.30
2023-04-15T11:33:18.022Z,1.20
2023-04-15T11:34:17.930Z,0.80
2023-04-15T11:35:17.991Z,2.30
2023-04-15T11:36:17.913Z,1.70
2023-04-15T11:37:18.163Z,1.70
2023-04-15T11:38:17.909Z,1.40
2023-04-15T11:39:17.949Z,1.70
2023-04-15T11:40:17.883Z,1.40
2023-04-15T11:41:17.958Z,1.40
2023-04-15T11:42:17.857Z,1.50
2023-04-15T11:43:17.945Z,1.30
2023-04-15T11:44:17.834Z,1.40
2023-04-15T11:45:17.853Z,1.10
2023-04-15T11:46:17.856Z,1.50
2023-04-15T11:47:17.991Z,1.30
2023-04-15T11:48:17.782Z,1.20
2023-04-15T11:49:17.911Z,1.50
2023-04-15T11:50:17.793Z,1.40
2023-04-15T11:51:17.834Z,1.50
2023-04-15T11:52:17.765Z,1.20
2023-04-15T11:53:17.795Z,1.80
2023-04-15T11:54:17.724Z,1.90
2023-04-15T11:55:17.808Z,1.40
2023-04-15T11:56:17.713Z,1.10
2023-04-15T11:57:17.717Z,1.70
2023-04-15T11:58:17.676Z,1.50
2023-04-15T11:59:17.733Z,2.10
2023-04-15T12:00:17.666Z,2.00
2023-04-15T12:01:17.849Z,1.50
2023-04-15T12:02:17.757Z,1.30
2023-04-15T12:03:17.932Z,1.40
2023-04-15T12:04:17.859Z,1.40
2023-04-15T12:05:17.870Z,2.60
2023-04-15T12:06:17.601Z,2.80
2023-04-15T12:07:17.691Z,2.00
2023-04-15T12:08:17.589Z,2.00
2023-04-15T12:09:17.660Z,1.70
2023-04-15T12:10:17.567Z,1.50
2023-04-15T12:11:17.661Z,1.20
2023-04-15T12:12:17.536Z,1.60
2023-04-15T12:13:17.604Z,1.30
2023-04-15T12:14:17.525Z,1.70
2023-04-15T12:15:17.534Z,1.50
2023-04-15T12:16:17.655Z,1.50
2023-04-15T12:17:17.642Z,1.30
2023-04-15T12:18:17.494Z,1.70
2023-04-15T12:19:17.628Z,1.90
2023-04-15T12:20:17.449Z,1.80
2023-04-15T12:21:17.490Z,1.70
2023-04-15T12:22:17.507Z,1.80
2023-04-15T12:23:17.473Z,1.70
2023-04-15T12:24:17.413Z,1.50
2023-04-15T12:25:17.593Z,0.80
2023-04-15T12:26:17.381Z,1.20
2023-04-15T12:27:17.460Z,1.50
2023-04-15T12:28:17.367Z,1.00
2023-04-15T12:29:17.411Z,1.30
2023-04-15T12:30:17.347Z,1.20
2023-04-15T12:31:17.504Z,1.20
2023-04-15T12:32:17.479Z,1.10
2023-04-15T12:33:17.360Z,1.30
2023-04-15T12:34:17.317Z,1.00
2023-04-15T12:35:17.343Z,1.00
2023-04-15T12:36:17.294Z,1.50
2023-04-15T12:37:17.471Z,1.20
2023-04-15T12:38:17.267Z,1.30
2023-04-15T12:39:17.407Z,1.30
2023-04-15T12:40:17.248Z,1.30
2023-04-15T12:41:17.339Z,1.50
2023-04-15T12:42:17.275Z,1.40
2023-04-15T12:43:17.317Z,1.00
2023-04-15T12:44:17.212Z,1.00
2023-04-15T12:45:17.345Z,1.10
2023-04-15T12:46:17.221Z,1.30
2023-04-15T12:47:17.324Z,1.70
2023-04-15T12:48:17.174Z,1.00
2023-04-15T12:49:17.223Z,1.30
2023-04-15T12:50:17.145Z,1.20
2023-04-15T12:51:17.273Z,1.00
2023-04-15T12:52:17.147Z,1.20
2023-04-15T12:53:17.156Z,1.20
2023-04-15T12:54:17.113Z,1.20
2023-04-15T12:55:17.237Z,1.30
2023-04-15T12:56:17.097Z,0.90
2023-04-15T12:57:17.198Z,1.00
2023-04-15T12:58:17.106Z,1.30
2023-04-15T12:59:17.097Z,1.60
2023-04-15T13:00:17.060Z,1.10
2023-04-15T13:01:17.120Z,1.20
2023-04-15T13:02:17.116Z,1.40
2023-04-15T13:03:17.219Z,1.20
2023-04-15T13:04:17.073Z,1.30
2023-04-15T13:05:17.028Z,1.20
2023-04-15T13:06:16.987Z,1.10
2023-04-15T13:07:17.069Z,1.60
2023-04-15T13:08:16.976Z,1.10
2023-04-15T13:09:17.069Z,1.30
2023-04-15T13:10:16.942Z,1.30
2023-04-15T13:11:17.040Z,1.20
2023-04-15T13:12:16.909Z,1.80
2023-04-15T13:13:16.978Z,1.20
2023-04-15T13:14:16.908Z,1.40
2023-04-15T13:15:16.990Z,1.30
2023-04-15T13:16:16.942Z,1.20
2023-04-15T13:17:17.018Z,1.50
2023-04-15T13:18:16.848Z,1.30
2023-04-15T13:19:16.924Z,1.20
2023-04-15T13:20:16.841Z,1.20
2023-04-15T13:21:16.947Z,1.20
2023-04-15T13:22:16.841Z,0.70
2023-04-15T13:23:16.862Z,1.30
2023-04-15T13:24:16.805Z,1.00
2023-04-15T13:25:16.868Z,1.40
2023-04-15T13:26:16.769Z,1.10
2023-04-15T13:27:16.804Z,1.80
2023-04-15T13:28:16.738Z,1.30
2023-04-15T13:29:16.825Z,1.50
2023-04-15T13:30:16.720Z,1.70
2023-04-15T13:31:16.884Z,1.60
2023-04-15T13:32:16.723Z,2.00
2023-04-15T13:33:16.803Z,1.70
2023-04-15T13:34:16.680Z,2.10
2023-04-15T13:35:16.709Z,2.30
2023-04-15T13:36:16.676Z,3.50
2023-04-15T13:37:16.770Z,1.50
2023-04-15T13:38:16.646Z,2.60
2023-04-15T13:39:16.746Z,1.50
2023-04-15T13:40:16.631Z,2.00
2023-04-15T13:41:16.655Z,2.00
2023-04-15T13:42:16.619Z,2.20
2023-04-15T13:43:16.674Z,2.70
2023-04-15T13:44:16.603Z,2.50
2023-04-15T13:45:16.748Z,2.30